createdAt,value
2022-08-10T00:00:13.622Z,15.30
2022-08-10T00:01:40.631Z,15.30
2022-08-10T00:03:03.040Z,15.30
2022-08-10T00:04:25.705Z,15.30
2022-08-10T00:05:53.220Z,15.30
2022-08-10T00:07:23.162Z,15.30
2022-08-10T00:08:52.350Z,15.30
2022-08-10T00:10:21.101Z,15.30
2022-08-10T00:11:43.479Z,15.30
2022-08-10T00:13:09.033Z,15.30
2022-08-10T00:14:38.428Z,15.20
2022-08-10T00:16:00.812Z,15.20
2022-08-10T00:17:23.161Z,15.20
2022-08-10T00:18:45.418Z,15.20
2022-08-10T00:20:11.917Z,15.20
2022-08-10T00:21:34.586Z,15.10
2022-08-10T00:22:57.921Z,15.10
2022-08-10T00:24:20.531Z,15.10
2022-08-10T00:25:42.853Z,15.10
2022-08-10T00:28:01.123Z,15.10
2022-08-10T00:28:47.817Z,15.10
2022-08-10T00:30:11.001Z,15.00
2022-08-10T00:31:55.941Z,15.00
2022-08-10T00:33:18.546Z,15.00
2022-08-10T00:34:41.221Z,15.00
2022-08-10T00:36:03.900Z,15.00
2022-08-10T00:37:28.567Z,14.90
2022-08-10T00:38:50.970Z,14.80
2022-08-10T00:40:16.312Z,14.80
2022-08-10T00:41:40.692Z,14.70
2022-08-10T00:43:02.854Z,14.60
2022-08-10T00:44:25.126Z,14.60
2022-08-10T00:45:58.859Z,14.60
2022-08-10T00:47:37.429Z,14.50
2022-08-10T00:49:00.265Z,14.50
2022-08-10T00:50:23.068Z,14.40
2022-08-10T00:51:48.708Z,14.40
2022-08-10T00:53:11.258Z,14.40
2022-08-10T00:54:35.842Z,14.30
2022-08-10T00:57:10.068Z,14.30
2022-08-10T00:57:40.766Z,14.30
2022-08-10T00:59:03.007Z,14.30
2022-08-10T01:00:25.445Z,14.20
2022-08-10T01:02:09.178Z,14.20
2022-08-10T01:04:36.312Z,14.20
2022-08-10T01:05:14.406Z,14.20
2022-08-10T01:06:53.870Z,14.20
2022-08-10T01:08:28.594Z,14.20
2022-08-10T01:10:09.132Z,14.20
2022-08-10T01:12:47.340Z,14.20
2022-08-10T01:13:45.475Z,14.20
2022-08-10T01:15:10.517Z,14.30
2022-08-10T01:16:52.558Z,14.30
2022-08-10T01:18:35.961Z,14.30
2022-08-10T01:20:30.151Z,14.30
2022-08-10T01:22:23.950Z,14.20
2022-08-10T01:24:05.553Z,14.20
2022-08-10T01:26:10.412Z,14.20
2022-08-10T01:28:17.141Z,14.20
2022-08-10T01:29:59.794Z,14.20
2022-08-10T01:31:28.122Z,14.10
2022-08-10T01:33:10.087Z,14.10
2022-08-10T01:34:50.762Z,14.10
2022-08-10T01:36:20.256Z,14.00
2022-08-10T01:38:12.633Z,14.00
2022-08-10T01:39:42.043Z,14.00
2022-08-10T01:41:11.136Z,14.00
2022-08-10T01:42:38.813Z,14.00
2022-08-10T01:44:11.100Z,14.00
2022-08-10T01:45:44.587Z,14.00
2022-08-10T01:47:34.294Z,14.00
2022-08-10T01:49:00.638Z,14.00
2022-08-10T01:50:36.036Z,14.00
2022-08-10T01:52:21.173Z,14.00
2022-08-10T01:53:52.140Z,14.00
2022-08-10T01:55:19.794Z,14.00
2022-08-10T01:56:48.372Z,14.00
2022-08-10T01:58:14.555Z,14.00
2022-08-10T01:59:39.378Z,14.00
2022-08-10T02:01:03.033Z,14.00
2022-08-10T02:02:30.682Z,14.00
2022-08-10T02:04:01.280Z,14.00
2022-08-10T02:05:31.480Z,14.00
2022-08-10T02:06:55.220Z,14.00
2022-08-10T02:08:19.247Z,13.90
2022-08-10T02:09:47.213Z,13.90
2022-08-10T02:11:10.985Z,13.90
2022-08-10T02:12:35.933Z,13.90
2022-08-10T02:13:59.503Z,13.90
2022-08-10T02:15:24.273Z,13.90
2022-08-10T02:16:51.628Z,13.80
2022-08-10T02:18:15.015Z,13.80
2022-08-10T02:19:41.749Z,13.80
2022-08-10T02:21:06.927Z,13.80
2022-08-10T02:22:46.010Z,13.90
2022-08-10T02:24:13.685Z,13.90
2022-08-10T02:25:42.714Z,13.90
2022-08-10T02:27:07.507Z,13.80
2022-08-10T02:28:34.961Z,13.80
2022-08-10T02:29:59.068Z,13.80
2022-08-10T02:31:29.503Z,13.80
2022-08-10T02:32:57.028Z,13.80
2022-08-10T02:34:20.329Z,13.80
2022-08-10T02:35:55.273Z,13.80
2022-08-10T02:37:22.303Z,13.80
2022-08-10T02:38:59.698Z,13.80
2022-08-10T02:42:18.118Z,13.80
2022-08-10T02:45:22.444Z,13.80
2022-08-10T02:45:23.629Z,13.80
2022-08-10T02:46:32.309Z,13.80
2022-08-10T02:47:58.714Z,13.80
2022-08-10T02:49:26.601Z,13.80
2022-08-10T02:50:57.173Z,13.80
2022-08-10T02:52:32.079Z,13.80
2022-08-10T02:54:03.711Z,13.80
2022-08-10T02:55:39.872Z,13.70
2022-08-10T02:57:18.693Z,13.70
2022-08-10T02:58:47.211Z,13.70
2022-08-10T03:00:10.041Z,13.60
2022-08-10T03:01:36.826Z,13.60
2022-08-10T03:03:01.661Z,13.60
2022-08-10T03:04:55.673Z,13.60
2022-08-10T03:06:23.601Z,13.50
2022-08-10T03:07:58.492Z,13.50
2022-08-10T03:09:22.492Z,13.50
2022-08-10T03:10:46.674Z,13.50
2022-08-10T03:12:36.755Z,13.50
2022-08-10T03:13:59.857Z,13.50
2022-08-10T03:15:24.427Z,13.50
2022-08-10T03:16:50.664Z,13.50
2022-08-10T03:18:15.264Z,13.40
2022-08-10T03:20:35.738Z,13.40
2022-08-10T03:21:29.259Z,13.40
2022-08-10T03:22:52.879Z,13.40
2022-08-10T03:24:33.321Z,13.40
2022-08-10T03:25:59.183Z,13.30
2022-08-10T03:27:26.813Z,13.40
2022-08-10T03:28:49.251Z,13.30
2022-08-10T03:30:29.972Z,13.30
2022-08-10T03:31:55.725Z,13.30
2022-08-10T03:33:19.437Z,13.30
2022-08-10T03:34:42.692Z,13.30
2022-08-10T03:36:43.212Z,13.30
2022-08-10T03:37:59.922Z,13.30
2022-08-10T03:39:22.566Z,13.30
2022-08-10T03:40:56.957Z,13.30
2022-08-10T03:42:22.691Z,13.20
2022-08-10T03:43:50.100Z,13.30
2022-08-10T03:45:13.804Z,13.30
2022-08-10T03:46:50.116Z,13.30
2022-08-10T03:48:22.891Z,13.30
2022-08-10T03:49:48.437Z,13.40
2022-08-10T03:51:11.900Z,13.40
2022-08-10T03:52:37.530Z,13.50
2022-08-10T03:54:03.612Z,13.50
2022-08-10T03:56:30.499Z,13.50
2022-08-10T03:57:14.194Z,13.60
2022-08-10T03:58:39.976Z,13.60
2022-08-10T04:00:05.378Z,13.70
2022-08-10T04:02:46.665Z,13.80
2022-08-10T04:03:11.867Z,13.80
2022-08-10T04:04:34.483Z,13.80
2022-08-10T04:06:00.638Z,13.90
2022-08-10T04:07:24.718Z,13.90
2022-08-10T04:08:50.128Z,13.90
2022-08-10T04:10:14.269Z,13.90
2022-08-10T04:11:37.103Z,13.90
2022-08-10T04:13:02.926Z,14.00
2022-08-10T04:14:38.761Z,14.00
2022-08-10T04:16:08.135Z,14.10
2022-08-10T04:18:05.066Z,14.50
2022-08-10T04:19:15.067Z,15.10
2022-08-10T04:20:50.774Z,15.70
2022-08-10T04:22:20.694Z,16.00
2022-08-10T04:23:51.134Z,16.40
2022-08-10T04:25:15.986Z,17.00
2022-08-10T04:26:39.085Z,17.70
2022-08-10T04:28:01.701Z,18.40
2022-08-10T04:29:25.638Z,19.20
2022-08-10T04:30:50.193Z,20.00
2022-08-10T04:32:17.253Z,20.70
2022-08-10T04:33:44.762Z,21.40
2022-08-10T04:35:10.627Z,22.00
2022-08-10T04:36:34.225Z,22.60
2022-08-10T04:37:58.473Z,22.90
2022-08-10T04:39:21.832Z,23.20
2022-08-10T04:40:46.979Z,23.30
2022-08-10T04:42:09.552Z,23.20
2022-08-10T04:43:32.015Z,23.00
2022-08-10T04:44:54.428Z,22.80
2022-08-10T04:46:42.862Z,22.90
2022-08-10T04:48:03.194Z,23.20
2022-08-10T04:49:53.983Z,23.80
2022-08-10T04:51:10.761Z,24.20
2022-08-10T04:52:33.795Z,24.60
2022-08-10T04:54:03.889Z,24.90
2022-08-10T04:55:29.008Z,25.20
2022-08-10T04:56:51.314Z,25.40
2022-08-10T04:58:13.465Z,25.60
2022-08-10T04:59:35.615Z,25.70
2022-08-10T05:00:57.889Z,26.00
2022-08-10T05:02:31.300Z,26.30
2022-08-10T05:04:34.517Z,26.50
2022-08-10T05:05:36.330Z,26.70
2022-08-10T05:06:58.392Z,27.00
2022-08-10T05:08:20.668Z,27.00
2022-08-10T05:10:02.393Z,26.70
2022-08-10T05:11:25.366Z,26.30
2022-08-10T05:12:47.432Z,26.00
2022-08-10T05:14:09.496Z,25.90
2022-08-10T05:15:31.686Z,25.80
2022-08-10T05:16:53.757Z,25.50
2022-08-10T05:18:15.940Z,25.10
2022-08-10T05:20:04.283Z,24.80
2022-08-10T05:22:02.997Z,24.60
2022-08-10T05:23:02.872Z,24.40
2022-08-10T05:24:25.028Z,24.40
2022-08-10T05:25:47.126Z,24.30
2022-08-10T05:27:10.603Z,24.30
2022-08-10T05:28:32.841Z,24.30
2022-08-10T05:30:02.163Z,24.50
2022-08-10T05:31:25.549Z,24.70
2022-08-10T05:32:59.222Z,24.90
2022-08-10T05:34:26.665Z,25.20
2022-08-10T05:35:55.203Z,25.50
2022-08-10T05:38:08.898Z,25.80
2022-08-10T05:39:02.755Z,25.90
2022-08-10T05:40:27.117Z,25.90
2022-08-10T05:41:53.096Z,25.80
2022-08-10T05:43:20.332Z,25.80
2022-08-10T05:44:42.582Z,25.80
2022-08-10T05:46:18.652Z,25.50
2022-08-10T05:48:55.065Z,25.40
2022-08-10T05:49:25.421Z,25.20
2022-08-10T05:50:47.841Z,25.10
2022-08-10T05:52:09.951Z,25.10
2022-08-10T05:54:01.154Z,25.00
2022-08-10T05:55:17.378Z,24.90
2022-08-10T05:56:57.071Z,24.60
2022-08-10T05:58:20.136Z,24.40
2022-08-10T06:00:33.350Z,24.20
2022-08-10T06:01:31.779Z,24.10
2022-08-10T06:03:04.555Z,24.10
2022-08-10T06:04:38.619Z,24.10
2022-08-10T06:06:02.256Z,24.30
2022-08-10T06:07:29.407Z,24.50
2022-08-10T06:08:52.663Z,24.50
2022-08-10T06:10:19.639Z,24.50
2022-08-10T06:12:28.531Z,24.40
2022-08-10T06:14:13.783Z,24.40
2022-08-10T06:15:52.099Z,24.30
2022-08-10T06:17:15.511Z,24.10
2022-08-10T06:18:38.213Z,23.90
2022-08-10T06:20:01.464Z,23.80
2022-08-10T06:21:24.041Z,23.60
2022-08-10T06:22:46.211Z,23.40
2022-08-10T06:24:11.115Z,23.10
2022-08-10T06:27:16.737Z,22.50
2022-08-10T06:28:42.575Z,22.10
2022-08-10T06:30:20.192Z,21.80
2022-08-10T06:31:51.080Z,21.60
2022-08-10T06:33:13.883Z,21.40
2022-08-10T06:34:39.944Z,21.30
2022-08-10T06:36:04.147Z,21.20
2022-08-10T06:37:28.089Z,21.10
2022-08-10T06:38:51.854Z,21.00
2022-08-10T06:40:14.314Z,20.80
2022-08-10T06:42:15.105Z,20.80
2022-08-10T06:43:33.982Z,20.60
2022-08-10T06:45:03.093Z,20.50
2022-08-10T06:46:28.223Z,20.40
2022-08-10T06:48:10.058Z,20.40
2022-08-10T06:49:33.257Z,20.40
2022-08-10T06:51:01.327Z,20.40
2022-08-10T06:52:24.331Z,20.40
2022-08-10T06:53:54.666Z,20.50
2022-08-10T06:55:18.799Z,20.60
2022-08-10T06:57:01.627Z,20.50
2022-08-10T06:58:34.200Z,20.50
2022-08-10T06:59:59.137Z,20.60
2022-08-10T07:01:34.143Z,20.60
2022-08-10T07:03:01.537Z,20.60
2022-08-10T07:05:03.803Z,20.60
2022-08-10T07:06:26.709Z,20.90
2022-08-10T07:07:50.946Z,21.00
2022-08-10T07:09:16.536Z,21.20
2022-08-10T07:10:46.104Z,21.40
2022-08-10T07:12:10.319Z,21.40
2022-08-10T07:14:15.942Z,21.50
2022-08-10T07:15:18.288Z,21.40
2022-08-10T07:16:42.666Z,21.30
2022-08-10T07:18:06.342Z,21.30
2022-08-10T07:19:29.207Z,21.40
2022-08-10T07:20:53.344Z,21.40
2022-08-10T07:23:01.288Z,21.50
2022-08-10T07:24:03.289Z,21.50
2022-08-10T07:25:27.706Z,21.50
2022-08-10T07:26:55.486Z,21.50
2022-08-10T07:28:19.238Z,21.60
2022-08-10T07:29:53.923Z,21.60
2022-08-10T07:31:54.826Z,21.60
2022-08-10T07:33:05.187Z,21.50
2022-08-10T07:34:30.268Z,21.50
2022-08-10T07:35:53.582Z,21.50
2022-08-10T07:37:17.016Z,21.50
2022-08-10T07:38:41.394Z,21.50
2022-08-10T07:40:05.145Z,21.50
2022-08-10T07:41:31.926Z,21.50
2022-08-10T07:42:58.527Z,21.50
2022-08-10T07:44:23.626Z,21.60
2022-08-10T07:45:47.161Z,21.50
2022-08-10T07:47:13.858Z,21.60
2022-08-10T07:48:48.751Z,21.70
2022-08-10T07:50:15.014Z,21.70
2022-08-10T07:51:38.141Z,21.70
2022-08-10T07:53:02.797Z,21.70
2022-08-10T07:54:29.839Z,21.70
2022-08-10T07:56:05.687Z,21.70
2022-08-10T07:57:40.045Z,21.80
2022-08-10T07:59:09.497Z,21.80
2022-08-10T08:00:32.871Z,21.90
2022-08-10T08:01:56.649Z,21.90
2022-08-10T08:03:24.737Z,22.00
2022-08-10T08:04:48.647Z,22.00
2022-08-10T08:06:13.336Z,22.00
2022-08-10T08:07:38.317Z,22.00
2022-08-10T08:09:03.631Z,21.90
2022-08-10T08:10:28.786Z,22.00
2022-08-10T08:11:52.974Z,22.00
2022-08-10T08:13:16.792Z,22.00
2022-08-10T08:14:41.652Z,22.00
2022-08-10T08:16:17.370Z,22.00
2022-08-10T08:17:41.967Z,22.10
2022-08-10T08:20:47.874Z,22.20
2022-08-10T08:24:05.290Z,22.20
2022-08-10T08:24:10.315Z,22.20
2022-08-10T08:25:41.118Z,22.20
2022-08-10T08:27:04.976Z,22.30
2022-08-10T08:28:28.704Z,22.30
2022-08-10T08:29:52.304Z,22.30
2022-08-10T08:31:15.514Z,22.40
2022-08-10T08:32:40.632Z,22.50
2022-08-10T08:34:04.416Z,22.50
2022-08-10T08:35:27.108Z,22.50
2022-08-10T08:36:50.409Z,22.50
2022-08-10T08:38:32.517Z,22.60
2022-08-10T08:39:57.137Z,22.60
2022-08-10T08:41:40.742Z,22.70
2022-08-10T08:43:31.406Z,22.60
2022-08-10T08:45:25.184Z,22.60
2022-08-10T08:48:04.424Z,22.50
2022-08-10T08:49:00.308Z,22.60
2022-08-10T08:51:03.829Z,22.70
2022-08-10T08:53:21.630Z,22.80
2022-08-10T08:55:03.295Z,22.80
2022-08-10T08:56:50.153Z,22.80
2022-08-10T08:58:24.542Z,22.80
2022-08-10T09:00:14.354Z,22.80
2022-08-10T09:02:02.641Z,22.80
2022-08-10T09:03:30.718Z,22.70
2022-08-10T09:05:22.161Z,22.70
2022-08-10T09:06:51.072Z,22.80
2022-08-10T09:08:37.565Z,22.90
2022-08-10T09:10:43.981Z,23.00
2022-08-10T09:12:36.519Z,23.00
2022-08-10T09:14:04.678Z,23.00
2022-08-10T09:15:39.666Z,22.90
2022-08-10T09:17:16.362Z,23.00
2022-08-10T09:19:19.582Z,23.00
2022-08-10T09:21:43.328Z,23.10
2022-08-10T09:24:01.407Z,23.10
2022-08-10T09:25:39.023Z,23.10
2022-08-10T09:27:09.340Z,23.20
2022-08-10T09:28:37.988Z,23.20
2022-08-10T09:30:07.537Z,23.30
2022-08-10T09:31:41.059Z,23.20
2022-08-10T09:36:21.415Z,23.30
2022-08-10T09:36:26.579Z,23.20
2022-08-10T09:38:02.318Z,23.20
2022-08-10T09:40:48.448Z,23.30
2022-08-10T09:41:49.675Z,23.30
2022-08-10T09:43:30.577Z,23.20
2022-08-10T09:44:58.081Z,23.30
2022-08-10T09:46:33.239Z,23.30
2022-08-10T09:48:18.607Z,23.30
2022-08-10T09:49:57.841Z,23.30
2022-08-10T09:51:48.745Z,23.40
2022-08-10T09:53:21.921Z,23.30
2022-08-10T09:54:53.919Z,23.40
2022-08-10T09:56:29.385Z,23.50
2022-08-10T09:58:15.994Z,23.40
2022-08-10T10:00:14.449Z,23.40
2022-08-10T10:02:03.272Z,23.40
2022-08-10T10:03:46.878Z,23.50
2022-08-10T10:05:33.589Z,23.60
2022-08-10T10:06:58.859Z,23.70
2022-08-10T10:08:42.790Z,23.70
2022-08-10T10:10:19.823Z,23.70
2022-08-10T10:11:54.118Z,23.70
2022-08-10T10:14:02.168Z,23.70
2022-08-10T10:15:45.473Z,23.70
2022-08-10T10:17:18.735Z,23.70
2022-08-10T10:19:10.114Z,23.80
2022-08-10T10:20:47.876Z,23.90
2022-08-10T10:22:37.239Z,24.00
2022-08-10T10:24:22.324Z,23.90
2022-08-10T10:26:01.676Z,23.90
2022-08-10T10:27:48.022Z,24.00
2022-08-10T10:29:57.389Z,24.10
2022-08-10T10:31:16.923Z,24.20
2022-08-10T10:33:13.301Z,24.20
2022-08-10T10:34:53.802Z,24.20
2022-08-10T10:36:17.699Z,24.30
2022-08-10T10:38:01.103Z,24.30
2022-08-10T10:39:26.181Z,24.30
2022-08-10T10:41:19.469Z,24.30
2022-08-10T10:43:07.984Z,24.20
2022-08-10T10:44:49.285Z,24.10
2022-08-10T10:46:49.829Z,24.10
2022-08-10T10:48:24.151Z,24.00
2022-08-10T10:50:00.857Z,24.10
2022-08-10T10:51:33.089Z,24.20
2022-08-10T10:53:17.975Z,24.40
2022-08-10T10:54:50.425Z,24.50
2022-08-10T10:56:47.613Z,24.50
2022-08-10T10:58:20.033Z,24.50
2022-08-10T11:00:02.957Z,24.40
2022-08-10T11:01:54.376Z,24.40
2022-08-10T11:03:28.331Z,24.30
2022-08-10T11:05:04.770Z,24.30
2022-08-10T11:06:48.571Z,24.40
2022-08-10T11:08:14.546Z,24.40
2022-08-10T11:10:05.157Z,24.40
2022-08-10T11:12:00.711Z,24.30
2022-08-10T11:14:27.037Z,24.20
2022-08-10T11:15:32.937Z,24.30
2022-08-10T11:17:25.920Z,24.40
2022-08-10T11:19:10.578Z,24.40
2022-08-10T11:20:51.987Z,24.40
2022-08-10T11:22:36.625Z,24.40
2022-08-10T11:24:42.968Z,24.50
2022-08-10T11:26:20.325Z,24.60
2022-08-10T11:27:57.583Z,24.60
2022-08-10T11:29:51.797Z,24.40
2022-08-10T11:31:33.752Z,24.40
2022-08-10T11:32:58.756Z,24.50
2022-08-10T11:34:48.216Z,24.60
2022-08-10T11:36:26.650Z,24.60
2022-08-10T11:38:33.059Z,24.50
2022-08-10T11:40:24.499Z,24.50
2022-08-10T11:42:16.097Z,24.60
2022-08-10T11:43:54.013Z,24.80
2022-08-10T11:45:29.444Z,24.80
2022-08-10T11:47:01.268Z,24.80
2022-08-10T11:48:53.209Z,24.80
2022-08-10T11:50:49.594Z,24.80
2022-08-10T11:52:22.967Z,24.90
2022-08-10T11:54:05.406Z,24.90
2022-08-10T11:55:33.103Z,24.90
2022-08-10T11:57:02.469Z,24.80
2022-08-10T11:58:47.486Z,24.70
2022-08-10T12:00:10.268Z,24.60
2022-08-10T12:01:34.182Z,24.50
2022-08-10T12:03:00.325Z,24.40
2022-08-10T12:04:24.643Z,24.40
2022-08-10T12:05:54.070Z,24.50
2022-08-10T12:10:07.220Z,24.50
2022-08-10T12:10:09.686Z,24.60
2022-08-10T12:10:46.129Z,24.70
2022-08-10T12:12:09.171Z,24.90
2022-08-10T12:14:10.686Z,24.90
2022-08-10T12:15:43.571Z,24.90
2022-08-10T12:17:12.624Z,24.90
2022-08-10T12:18:48.115Z,24.90
2022-08-10T12:20:21.534Z,24.80
2022-08-10T12:21:56.098Z,24.70
2022-08-10T12:23:43.794Z,24.80
2022-08-10T12:25:17.901Z,24.90
2022-08-10T12:26:56.236Z,24.90
2022-08-10T12:28:50.204Z,25.10
2022-08-10T12:30:17.140Z,25.10
2022-08-10T12:31:43.944Z,25.00
2022-08-10T12:33:23.421Z,24.90
2022-08-10T12:34:51.135Z,24.90
2022-08-10T12:36:43.076Z,24.80
2022-08-10T12:38:25.712Z,24.80
2022-08-10T12:40:34.023Z,24.90
2022-08-10T12:42:06.569Z,24.90
2022-08-10T12:44:05.515Z,24.80
2022-08-10T12:45:48.071Z,24.80
2022-08-10T12:47:35.015Z,24.80
2022-08-10T12:49:00.472Z,24.80
2022-08-10T12:50:33.992Z,24.70
2022-08-10T12:52:18.189Z,24.70
2022-08-10T12:54:10.477Z,24.80
2022-08-10T12:55:34.082Z,24.80
2022-08-10T12:57:15.636Z,24.80
2022-08-10T12:58:57.028Z,24.90
2022-08-10T13:00:33.854Z,24.90
2022-08-10T13:02:07.549Z,25.00
2022-08-10T13:04:20.300Z,25.10
2022-08-10T13:05:18.162Z,25.00
2022-08-10T13:06:46.107Z,25.00
2022-08-10T13:08:28.239Z,24.90
2022-08-10T13:09:55.691Z,24.80
2022-08-10T13:12:34.089Z,24.80
2022-08-10T13:13:05.752Z,24.80
2022-08-10T13:14:42.808Z,24.80
2022-08-10T13:16:06.183Z,24.90
2022-08-10T13:17:39.762Z,24.90
2022-08-10T13:19:06.550Z,24.90
2022-08-10T13:20:37.923Z,24.90
2022-08-10T13:22:02.815Z,24.90
2022-08-10T13:23:29.012Z,24.90
2022-08-10T13:24:55.925Z,24.80
2022-08-10T13:26:22.317Z,24.70
2022-08-10T13:28:01.291Z,24.70
2022-08-10T13:29:33.197Z,24.70
2022-08-10T13:31:05.331Z,24.80
2022-08-10T13:32:29.386Z,24.90
2022-08-10T13:34:41.522Z,24.90
2022-08-10T13:35:38.291Z,25.00
2022-08-10T13:37:02.423Z,25.00
2022-08-10T13:38:25.366Z,24.90
2022-08-10T13:39:58.728Z,24.80
2022-08-10T13:41:31.779Z,24.70
2022-08-10T13:42:58.639Z,24.70
2022-08-10T13:44:35.135Z,24.70
2022-08-10T13:45:59.001Z,24.70
2022-08-10T13:47:31.926Z,24.80
2022-08-10T13:49:11.401Z,24.80
2022-08-10T13:50:37.405Z,24.70
2022-08-10T13:52:00.296Z,24.70
2022-08-10T13:53:23.085Z,24.60
2022-08-10T13:54:46.545Z,24.50
2022-08-10T13:56:10.328Z,24.50
2022-08-10T13:57:36.949Z,24.50
2022-08-10T13:59:09.937Z,24.40
2022-08-10T14:00:39.433Z,24.40
2022-08-10T14:02:03.116Z,24.40
2022-08-10T14:03:27.691Z,24.50
2022-08-10T14:04:50.236Z,24.50
2022-08-10T14:06:15.358Z,24.60
2022-08-10T14:08:00.261Z,24.60
2022-08-10T14:09:32.935Z,24.60
2022-08-10T14:11:02.028Z,24.60
2022-08-10T14:12:37.490Z,24.40
2022-08-10T14:14:04.252Z,24.50
2022-08-10T14:15:31.838Z,24.60
2022-08-10T14:16:55.520Z,24.60
2022-08-10T14:18:18.751Z,24.70
2022-08-10T14:19:43.501Z,24.80
2022-08-10T14:21:06.815Z,24.80
2022-08-10T14:22:34.225Z,24.80
2022-08-10T14:24:02.391Z,24.90
2022-08-10T14:25:24.531Z,24.90
2022-08-10T14:26:48.237Z,24.90
2022-08-10T14:28:11.046Z,24.80
2022-08-10T14:29:55.040Z,24.80
2022-08-10T14:31:22.326Z,24.70
2022-08-10T14:32:48.100Z,24.60
2022-08-10T14:34:12.160Z,24.50
2022-08-10T14:36:20.313Z,24.40
2022-08-10T14:37:37.703Z,24.50
2022-08-10T14:39:02.373Z,24.40
2022-08-10T14:40:33.636Z,24.40
2022-08-10T14:42:01.593Z,24.40
2022-08-10T14:43:39.263Z,24.50
2022-08-10T14:45:07.552Z,24.50
2022-08-10T14:46:30.801Z,24.50
2022-08-10T14:48:10.046Z,24.50
2022-08-10T14:49:57.210Z,24.50
2022-08-10T14:51:27.079Z,24.50
2022-08-10T14:53:09.933Z,24.50
2022-08-10T14:54:34.996Z,24.50
2022-08-10T14:56:02.305Z,24.40
2022-08-10T14:58:16.717Z,24.30
2022-08-10T14:59:09.309Z,24.30
2022-08-10T15:00:42.508Z,24.30
2022-08-10T15:02:40.860Z,24.30
2022-08-10T15:04:06.929Z,24.30
2022-08-10T15:05:39.910Z,24.30
2022-08-10T15:07:12.661Z,24.30
2022-08-10T15:08:36.928Z,24.30
2022-08-10T15:10:04.320Z,24.30
2022-08-10T15:12:13.081Z,24.20
2022-08-10T15:13:33.596Z,24.20
2022-08-10T15:15:01.189Z,24.20
2022-08-10T15:16:27.353Z,24.10
2022-08-10T15:17:57.343Z,24.20
2022-08-10T15:19:34.302Z,24.20
2022-08-10T15:21:17.064Z,24.10
2022-08-10T15:22:40.389Z,24.00
2022-08-10T15:24:09.901Z,24.00
2022-08-10T15:25:36.747Z,24.00
2022-08-10T15:27:00.163Z,24.00
2022-08-10T15:28:23.615Z,24.00
2022-08-10T15:30:08.621Z,24.00
2022-08-10T15:31:34.874Z,24.00
2022-08-10T15:33:21.270Z,23.90
2022-08-10T15:35:20.890Z,23.90
2022-08-10T15:37:40.484Z,23.90
2022-08-10T15:38:59.894Z,23.90
2022-08-10T15:40:30.797Z,23.80
2022-08-10T15:42:05.151Z,23.80
2022-08-10T15:43:36.872Z,23.80
2022-08-10T15:45:07.312Z,23.70
2022-08-10T15:46:39.637Z,23.60
2022-08-10T15:48:05.262Z,23.60
2022-08-10T15:49:33.566Z,23.50
2022-08-10T15:51:01.863Z,23.50
2022-08-10T15:53:00.802Z,23.60
2022-08-10T15:54:17.102Z,23.60
2022-08-10T15:55:54.589Z,23.60
2022-08-10T15:57:22.754Z,23.70
2022-08-10T15:59:08.545Z,23.70
2022-08-10T16:00:33.377Z,23.60
2022-08-10T16:02:16.672Z,23.60
2022-08-10T16:03:44.692Z,23.60
2022-08-10T16:05:21.562Z,23.50
2022-08-10T16:07:09.094Z,23.40
2022-08-10T16:08:55.846Z,23.40
2022-08-10T16:10:28.902Z,23.30
2022-08-10T16:11:59.997Z,23.30
2022-08-10T16:14:00.763Z,23.20
2022-08-10T16:15:14.777Z,23.20
2022-08-10T16:16:38.549Z,23.20
2022-08-10T16:18:04.515Z,23.20
2022-08-10T16:19:27.394Z,23.20
2022-08-10T16:20:54.907Z,23.20
2022-08-10T16:22:34.501Z,23.20
2022-08-10T16:24:15.866Z,23.20
2022-08-10T16:25:51.706Z,23.20
2022-08-10T16:27:26.171Z,22.90
2022-08-10T16:28:55.112Z,22.80
2022-08-10T16:30:17.605Z,22.70
2022-08-10T16:31:50.110Z,22.70
2022-08-10T16:33:18.784Z,22.70
2022-08-10T16:34:43.357Z,22.80
2022-08-10T16:36:07.719Z,22.80
2022-08-10T16:37:56.533Z,22.90
2022-08-10T16:39:57.622Z,22.90
2022-08-10T16:41:54.955Z,22.90
2022-08-10T16:43:03.991Z,22.90
2022-08-10T16:44:35.752Z,22.90
2022-08-10T16:45:58.944Z,22.90
2022-08-10T16:47:27.537Z,22.90
2022-08-10T16:48:53.084Z,22.90
2022-08-10T16:50:21.347Z,22.80
2022-08-10T16:51:48.434Z,22.80
2022-08-10T16:53:17.183Z,22.80
2022-08-10T16:54:41.532Z,22.70
2022-08-10T16:56:06.935Z,22.70
2022-08-10T16:57:33.485Z,22.70
2022-08-10T16:58:57.506Z,22.60
2022-08-10T17:00:23.655Z,22.60
2022-08-10T17:01:51.319Z,22.50
2022-08-10T17:04:05.492Z,22.50
2022-08-10T17:05:02.529Z,22.50
2022-08-10T17:06:30.412Z,22.50
2022-08-10T17:08:07.342Z,22.50
2022-08-10T17:09:33.142Z,22.50
2022-08-10T17:10:57.667Z,22.50
2022-08-10T17:12:24.826Z,22.50
2022-08-10T17:13:49.533Z,22.50
2022-08-10T17:15:12.322Z,22.50
2022-08-10T17:16:36.934Z,22.50
2022-08-10T17:18:02.629Z,22.50
2022-08-10T17:19:26.702Z,22.60
2022-08-10T17:20:51.451Z,22.60
2022-08-10T17:22:19.768Z,22.50
2022-08-10T17:23:47.126Z,22.60
2022-08-10T17:25:17.366Z,22.60
2022-08-10T17:26:43.323Z,22.60
2022-08-10T17:28:09.938Z,22.60
2022-08-10T17:29:58.142Z,22.60
2022-08-10T17:31:54.801Z,22.60
2022-08-10T17:33:15.952Z,22.60
2022-08-10T17:34:44.449Z,22.60
2022-08-10T17:36:07.677Z,22.60
2022-08-10T17:37:36.403Z,22.70
2022-08-10T17:39:00.655Z,22.70
2022-08-10T17:40:26.222Z,22.70
2022-08-10T17:41:52.043Z,22.80
2022-08-10T17:43:58.505Z,22.80
2022-08-10T17:45:05.701Z,22.80
2022-08-10T17:46:32.890Z,22.80
2022-08-10T17:47:59.568Z,22.80
2022-08-10T17:49:23.668Z,22.80
2022-08-10T17:50:51.383Z,22.80
2022-08-10T17:52:20.522Z,22.80
2022-08-10T17:53:56.475Z,22.80
2022-08-10T17:55:19.635Z,22.80
2022-08-10T17:56:42.373Z,22.80
2022-08-10T17:58:12.196Z,22.80
2022-08-10T17:59:37.566Z,22.80
2022-08-10T18:01:38.350Z,22.70
2022-08-10T18:02:48.665Z,22.70
2022-08-10T18:04:17.951Z,22.60
2022-08-10T18:05:40.110Z,22.60
2022-08-10T18:07:03.417Z,22.50
2022-08-10T18:08:29.473Z,22.40
2022-08-10T18:09:54.458Z,22.30
2022-08-10T18:11:19.142Z,22.20
2022-08-10T18:12:51.247Z,22.00
2022-08-10T18:14:15.046Z,21.90
2022-08-10T18:15:42.378Z,21.70
2022-08-10T18:17:13.404Z,21.70
2022-08-10T18:18:37.346Z,21.60
2022-08-10T18:20:02.369Z,21.50
2022-08-10T18:21:27.161Z,21.50
2022-08-10T18:22:54.847Z,21.40
2022-08-10T18:24:19.491Z,21.30
2022-08-10T18:25:44.926Z,21.30
2022-08-10T18:27:09.021Z,21.20
2022-08-10T18:28:32.006Z,21.20
2022-08-10T18:29:57.277Z,21.20
2022-08-10T18:31:20.602Z,21.10
2022-08-10T18:32:48.100Z,21.00
2022-08-10T18:34:13.177Z,21.00
2022-08-10T18:35:35.849Z,21.00
2022-08-10T18:36:59.103Z,21.00
2022-08-10T18:38:21.989Z,20.90
2022-08-10T18:39:45.465Z,20.90
2022-08-10T18:41:12.218Z,20.80
2022-08-10T18:42:49.642Z,20.80
2022-08-10T18:44:16.356Z,20.70
2022-08-10T18:45:43.611Z,20.70
2022-08-10T18:47:17.803Z,20.60
2022-08-10T18:48:47.029Z,20.60
2022-08-10T18:50:17.137Z,20.60
2022-08-10T18:51:50.822Z,20.50
2022-08-10T18:53:36.917Z,20.50
2022-08-10T18:55:14.442Z,20.40
2022-08-10T18:56:59.594Z,20.40
2022-08-10T18:58:30.774Z,20.40
2022-08-10T19:00:10.337Z,20.30
2022-08-10T19:01:38.069Z,20.30
2022-08-10T19:03:01.022Z,20.20
2022-08-10T19:05:02.449Z,20.20
2022-08-10T19:06:49.290Z,20.10
2022-08-10T19:08:31.151Z,20.10
2022-08-10T19:10:03.775Z,20.10
2022-08-10T19:11:58.145Z,20.10
2022-08-10T19:13:48.818Z,20.00
2022-08-10T19:15:23.951Z,20.00
2022-08-10T19:16:57.089Z,20.00
2022-08-10T19:18:42.337Z,19.90
2022-08-10T19:20:19.440Z,19.90
2022-08-10T19:21:53.821Z,19.90
2022-08-10T19:23:16.675Z,19.80
2022-08-10T19:24:50.394Z,19.80
2022-08-10T19:26:41.793Z,19.80
2022-08-10T19:28:16.754Z,19.70
2022-08-10T19:30:11.361Z,19.70
2022-08-10T19:31:53.670Z,19.70
2022-08-10T19:33:27.870Z,19.70
2022-08-10T19:35:18.848Z,19.70
2022-08-10T19:36:46.818Z,19.60
2022-08-10T19:38:33.478Z,19.60
2022-08-10T19:40:43.981Z,19.60
2022-08-10T19:42:19.645Z,19.50
2022-08-10T19:44:04.410Z,19.50
2022-08-10T19:46:01.137Z,19.40
2022-08-10T19:47:29.025Z,19.40
2022-08-10T19:48:59.439Z,19.40
2022-08-10T19:50:32.644Z,19.30
2022-08-10T19:52:10.645Z,19.30
2022-08-10T19:54:01.291Z,19.20
2022-08-10T19:55:26.196Z,19.20
2022-08-10T19:57:15.381Z,19.20
2022-08-10T19:58:59.707Z,19.20
2022-08-10T20:00:29.133Z,19.20